Time;durP1;ratioP1;P1;durP2;ratioP2;P2;SDS_P1;SDS_P2;PMS_P1;PMS_P2;Temp;Humidity;BMP_temperature;BMP_pressure;BME280_temperature;BME280_humidity;BME280_pressure;Samples;Min_cycle;Max_cycle;Signal;HPM_P1;HPM_P2
2022/10/31 15:15:44;;;;;;;26.00;15.80;;;;;;;18.13;71.32;101116.40;99909;1337;599085;-77
2022/10/31 15:18:27;;;;;;;25.40;15.30;;;;;;;17.90;72.36;101117.84;102510;1304;60606;-76
2022/10/31 15:20:55;;;;;;;26.40;15.30;;;;;;;17.68;72.75;101107.73;102586;1305;59895;-76
2022/10/31 15:23:26;;;;;;;23.60;16.10;;;;;;;17.53;73.53;101108.73;102631;1300;72634;-78
2022/10/31 15:26:01;;;;;;;24.30;15.60;;;;;;;17.37;74.19;101103.48;102493;1305;68972;-77
2022/10/31 15:28:28;;;;;;;27.00;16.20;;;;;;;17.20;74.75;101098.99;102433;1291;205603;-77
2022/10/31 15:31:00;;;;;;;26.10;16.10;;;;;;;17.01;75.80;101092.91;102758;1297;61925;-79
2022/10/31 15:33:39;;;;;;;28.70;16.90;;;;;;;16.82;76.19;101085.73;102252;1300;60275;-77
2022/10/31 15:36:25;;;;;;;27.80;16.70;;;;;;;16.62;76.98;101085.59;102755;1297;72476;-80
2022/10/31 15:38:57;;;;;;;26.30;16.70;;;;;;;16.45;77.70;101083.64;103063;1305;71607;-77
2022/10/31 15:41:33;;;;;;;27.80;17.30;;;;;;;16.30;78.42;101079.13;103374;1303;71372;-75
2022/10/31 15:44:07;;;;;;;27.60;17.20;;;;;;;16.18;79.09;101078.11;102419;1304;60823;-76
2022/10/31 15:46:33;;;;;;;25.70;16.10;;;;;;;16.06;79.54;101079.66;103008;1301;60344;-76
2022/10/31 15:49:00;;;;;;;26.50;17.00;;;;;;;15.94;80.18;101073.98;102750;1301;71500;-76
2022/10/31 15:51:33;;;;;;;28.00;17.20;;;;;;;15.81;80.97;101068.33;102761;1304;69045;-76
2022/10/31 15:54:00;;;;;;;30.70;17.40;;;;;;;15.68;81.56;101059.31;102499;1305;71147;-77
2022/10/31 15:56:30;;;;;;;34.70;18.50;;;;;;;15.57;82.15;101060.88;102712;1298;61120;-75
2022/10/31 15:58:59;;;;;;;32.50;18.40;;;;;;;15.48;82.63;101053.69;102609;1305;59700;-75
2022/10/31 16:01:31;;;;;;;33.20;19.30;;;;;;;15.40;83.48;101050.84;102674;1305;72941;-76
2022/10/31 16:04:01;;;;;;;30.20;17.40;;;;;;;15.31;84.08;101047.67;102763;1305;70651;-75
2022/10/31 16:06:28;;;;;;;28.60;16.70;;;;;;;15.22;85.09;101042.98;103484;1302;73301;-75
2022/10/31 16:08:54;;;;;;;29.30;17.10;;;;;;;15.14;85.48;101043.98;103675;1301;63001;-82
2022/10/31 16:11:39;;;;;;;31.10;17.70;;;;;;;15.08;86.49;101041.09;103214;1297;59747;-83
2022/10/31 16:14:09;;;;;;;29.70;17.30;;;;;;;15.03;86.69;101046.02;103721;1302;71649;-84
2022/10/31 16:16:46;;;;;;;32.50;17.50;;;;;;;14.97;87.32;101049.81;103756;1297;70963;-83
2022/10/31 16:19:19;;;;;;;28.80;17.20;;;;;;;14.93;87.59;101051.05;103151;1303;72754;-77
2022/10/31 16:21:48;;;;;;;26.20;16.50;;;;;;;14.90;88.19;101047.13;102636;1309;61571;-76
2022/10/31 16:24:19;;;;;;;28.70;16.70;;;;;;;14.89;88.41;101051.89;102805;1305;59782;-76
2022/10/31 16:26:52;;;;;;;27.50;16.60;;;;;;;14.87;88.84;101052.91;102934;1297;71695;-76
2022/10/31 16:29:32;;;;;;;32.60;17.60;;;;;;;14.85;89.31;101056.89;102741;1296;72104;-76
2022/10/31 16:31:59;;;;;;;28.50;16.70;;;;;;;14.83;89.82;101053.28;102957;1290;72286;-76
2022/10/31 16:34:25;;;;;;;30.70;16.90;;;;;;;14.80;90.04;101049.85;102860;1295;60596;-76
2022/10/31 16:36:53;;;;;;;32.00;17.70;;;;;;;14.79;90.24;101045.00;103149;1297;59810;-77
2022/10/31 16:39:19;;;;;;;30.90;17.60;;;;;;;14.79;90.48;101040.63;102791;1301;73711;-76
2022/10/31 16:41:51;;;;;;;33.10;18.20;;;;;;;14.79;90.36;101043.63;103229;1303;70792;-77
2022/10/31 16:44:24;;;;;;;30.20;17.70;;;;;;;14.79;90.57;101040.40;102515;1301;73132;-76
2022/10/31 16:47:05;;;;;;;34.10;18.20;;;;;;;14.80;90.65;101038.88;103347;1306;60445;-75
2022/10/31 16:49:32;;;;;;;29.20;17.80;;;;;;;14.81;90.52;101039.46;103183;1301;59743;-76
2022/10/31 16:51:58;;;;;;;30.40;17.60;;;;;;;14.81;90.78;101037.24;103077;1300;59692;-75
2022/10/31 16:54:25;;;;;;;32.50;18.20;;;;;;;14.81;90.84;101035.69;102596;1306;59869;-75
2022/10/31 16:56:51;;;;;;;27.90;16.80;;;;;;;14.81;90.84;101029.30;103036;1295;59713;-76
2022/10/31 16:59:18;;;;;;;29.80;16.30;;;;;;;14.81;91.08;101024.64;102959;1298;59912;-76
2022/10/31 17:01:48;;;;;;;28.30;16.50;;;;;;;14.81;91.36;101029.09;102764;1305;59823;-77
2022/10/31 17:04:15;;;;;;;27.10;16.00;;;;;;;14.80;91.50;101029.30;102557;1303;72074;-76
2022/10/31 17:06:42;;;;;;;29.20;16.20;;;;;;;14.79;91.49;101027.90;102608;1297;72281;-74
2022/10/31 17:09:08;;;;;;;29.20;16.40;;;;;;;14.78;91.70;101024.73;102735;1305;59802;-76
2022/10/31 17:11:36;;;;;;;28.60;16.30;;;;;;;14.76;91.62;101022.25;102725;1302;61445;-76
2022/10/31 17:14:03;;;;;;;29.50;16.00;;;;;;;14.75;91.90;101021.63;102941;1301;59571;-77
2022/10/31 17:16:30;;;;;;;28.40;16.80;;;;;;;14.74;91.73;101012.61;102486;1298;73575;-77
2022/10/31 17:18:56;;;;;;;28.80;16.20;;;;;;;14.73;91.77;101009.80;103076;1304;59970;-75
2022/10/31 17:21:25;;;;;;;26.20;16.20;;;;;;;14.72;92.02;101011.01;104555;1293;60104;-77
2022/10/31 17:23:51;;;;;;;24.60;16.10;;;;;;;14.71;92.12;101005.09;103708;1299;60633;-76
2022/10/31 17:26:18;;;;;;;29.90;16.70;;;;;;;14.70;92.17;101005.29;103786;1298;59185;-76
2022/10/31 17:28:45;;;;;;;27.50;15.70;;;;;;;14.68;92.30;101009.30;103296;1298;72030;-77
2022/10/31 17:31:22;;;;;;;28.50;17.20;;;;;;;14.67;92.42;101007.31;103566;1297;72147;-77
2022/10/31 17:33:49;;;;;;;26.10;16.00;;;;;;;14.67;92.24;101003.05;103005;1305;71641;-75
2022/10/31 17:36:16;;;;;;;28.70;16.00;;;;;;;14.67;92.45;100999.55;103237;1305;59899;-75
2022/10/31 17:38:42;;;;;;;28.80;16.60;;;;;;;14.65;92.46;100999.00;102809;1304;61174;-78
2022/10/31 17:41:09;;;;;;;29.50;16.40;;;;;;;14.64;92.85;100999.41;103029;1303;59684;-75
2022/10/31 17:43:37;;;;;;;26.50;16.40;;;;;;;14.62;92.84;100989.46;103087;1301;71016;-76
2022/10/31 17:46:04;;;;;;;30.50;16.80;;;;;;;14.60;92.90;100986.81;102850;1303;72673;-75
2022/10/31 17:48:33;;;;;;;34.40;18.20;;;;;;;14.60;92.94;100987.39;102856;1307;60396;-75
2022/10/31 17:51:02;;;;;;;31.90;17.30;;;;;;;14.60;92.97;100987.88;102392;1305;59817;-76
2022/10/31 17:53:33;;;;;;;31.60;17.60;;;;;;;14.61;92.87;100991.05;102946;1303;72455;-75
2022/10/31 17:56:05;;;;;;;29.20;17.10;;;;;;;14.60;93.06;100993.95;102581;1297;69783;-75
2022/10/31 17:58:33;;;;;;;29.10;17.40;;;;;;;14.59;93.25;100992.51;104487;1295;73059;-76
2022/10/31 18:01:00;;;;;;;32.90;17.40;;;;;;;14.59;93.45;100994.97;105369;1300;60942;-77
2022/10/31 18:03:27;;;;;;;32.60;17.50;;;;;;;14.59;93.54;100989.80;105407;1287;59169;-76
2022/10/31 18:05:56;;;;;;;32.00;17.60;;;;;;;14.61;93.72;100990.71;104264;1298;74139;-75
2022/10/31 18:08:27;;;;;;;34.80;19.40;;;;;;;14.62;93.88;100987.68;104258;1297;70561;-76
2022/10/31 18:10:55;;;;;;;34.50;18.90;;;;;;;14.64;94.12;100985.11;103647;1308;72593;-74
2022/10/31 18:13:22;;;;;;;34.90;19.10;;;;;;;14.66;94.17;100975.27;103611;1298;60460;-75
2022/10/31 18:15:48;;;;;;;41.30;21.20;;;;;;;14.67;94.09;100966.23;103445;1305;60507;-83
2022/10/31 18:18:14;;;;;;;34.80;19.30;;;;;;;14.69;94.45;100958.70;103445;1297;59233;-82
2022/10/31 18:20:41;;;;;;;36.20;19.40;;;;;;;14.70;94.38;100958.41;103336;1300;59811;-81
2022/10/31 18:23:08;;;;;;;37.00;19.80;;;;;;;14.70;94.27;100950.80;103717;1301;73176;-81
2022/10/31 18:25:37;;;;;;;32.70;18.90;;;;;;;14.68;94.58;100950.77;103429;1304;59862;-82
2022/10/31 18:28:05;;;;;;;38.20;19.40;;;;;;;14.67;94.64;100951.65;104831;1290;60617;-82
2022/10/31 18:30:32;;;;;;;36.20;19.10;;;;;;;14.66;94.99;100949.96;103661;1305;72175;-81
2022/10/31 18:32:58;;;;;;;36.10;20.30;;;;;;;14.64;95.48;100948.92;103964;1303;69933;-78
2022/10/31 18:35:25;;;;;;;40.50;21.20;;;;;;;14.62;95.72;100948.14;104207;1297;61160;-80
2022/10/31 18:37:51;;;;;;;40.70;22.50;;;;;;;14.61;95.85;100946.89;104196;1294;59716;-81
2022/10/31 18:40:18;;;;;;;43.70;22.80;;;;;;;14.60;96.26;100945.48;103970;1284;58459;-80
2022/10/31 18:42:44;;;;;;;41.30;22.20;;;;;;;14.58;96.46;100949.58;104322;1294;59591;-80
2022/10/31 18:45:11;;;;;;;45.50;23.60;;;;;;;14.55;97.10;100948.28;103982;1291;59632;-80
2022/10/31 18:47:57;;;;;;;44.90;24.10;;;;;;;14.51;97.64;100948.14;104734;1295;71500;-81
2022/10/31 18:50:24;;;;;;;43.90;24.50;;;;;;;14.49;97.52;100944.43;104043;1298;61688;-81
2022/10/31 18:52:51;;;;;;;50.00;26.00;;;;;;;14.49;97.26;100926.69;104146;1298;60078;-80
2022/10/31 18:55:17;;;;;;;43.60;24.30;;;;;;;14.48;97.41;100920.77;104121;1294;59635;-82
2022/10/31 18:57:45;;;;;;;47.50;26.40;;;;;;;14.45;97.87;100926.13;103684;1294;59739;-81
2022/10/31 19:00:16;;;;;;;51.00;28.20;;;;;;;14.42;98.51;100924.97;104858;1294;71380;-81
2022/10/31 19:02:43;;;;;;;53.80;28.30;;;;;;;14.40;98.32;100929.23;104501;1284;60736;-82
2022/10/31 19:05:09;;;;;;;58.10;30.00;;;;;;;14.40;98.52;100928.57;104564;1294;58659;-83
2022/10/31 19:07:36;;;;;;;63.60;31.70;;;;;;;14.38;98.86;100929.86;104045;1296;59866;-81
2022/10/31 19:10:03;;;;;;;61.00;31.80;;;;;;;14.38;98.63;100928.92;104275;1292;60885;-81
2022/10/31 19:12:31;;;;;;;68.80;33.70;;;;;;;14.38;98.53;100924.52;103763;1294;70496;-84
2022/10/31 19:14:58;;;;;;;67.30;33.50;;;;;;;14.39;98.61;100918.00;103817;1297;62021;-80
2022/10/31 19:17:24;;;;;;;72.80;34.40;;;;;;;14.40;98.67;100919.31;103924;1292;59193;-82
2022/10/31 19:19:51;;;;;;;70.50;35.70;;;;;;;14.41;98.92;100920.98;104033;1292;59619;-81
2022/10/31 19:22:17;;;;;;;68.80;34.40;;;;;;;14.40;99.16;100915.89;103998;1298;59798;-81
2022/10/31 19:24:44;;;;;;;71.10;35.10;;;;;;;14.40;99.39;100907.38;103603;1301;59159;-82
2022/10/31 19:27:10;;;;;;;73.10;35.70;;;;;;;14.38;99.69;100904.57;104060;1295;59234;-82
2022/10/31 19:29:38;;;;;;;72.80;36.60;;;;;;;14.39;99.91;100904.82;103610;1293;60652;-82
2022/10/31 19:32:05;;;;;;;71.70;36.00;;;;;;;14.39;99.99;100907.28;103775;1299;73018;-80
2022/10/31 19:34:31;;;;;;;76.90;36.70;;;;;;;14.39;99.93;100908.55;103431;1297;62162;-82
2022/10/31 19:36:58;;;;;;;77.60;36.90;;;;;;;14.38;99.98;100900.42;103875;1291;60585;-82
2022/10/31 19:39:24;;;;;;;72.80;36.10;;;;;;;14.40;99.95;100895.46;103929;1292;60584;-81
2022/10/31 19:41:51;;;;;;;73.00;35.80;;;;;;;14.41;99.97;100895.56;104086;1295;61673;-83
2022/10/31 19:44:17;;;;;;;73.80;36.10;;;;;;;14.37;99.98;100885.96;104401;1294;59417;-82
2022/10/31 19:46:44;;;;;;;74.40;36.30;;;;;;;14.33;99.97;100880.14;104048;1291;60511;-81
2022/10/31 19:49:20;;;;;;;74.70;35.70;;;;;;;14.27;100.00;100877.81;104453;1291;72090;-83
2022/10/31 19:51:47;;;;;;;78.50;36.60;;;;;;;14.24;100.00;100875.41;104134;1294;62161;-81
2022/10/31 19:54:13;;;;;;;75.00;35.30;;;;;;;14.20;100.00;100866.02;104247;1300;60325;-81
2022/10/31 19:56:40;;;;;;;72.70;36.00;;;;;;;14.18;100.00;100866.73;103841;1297;73136;-82
2022/10/31 19:59:06;;;;;;;71.70;34.40;;;;;;;14.15;100.00;100851.87;104352;1294;69863;-83
2022/10/31 20:01:33;;;;;;;68.20;34.00;;;;;;;14.10;100.00;100839.27;103741;1298;73213;-80
2022/10/31 20:04:00;;;;;;;72.60;34.80;;;;;;;14.04;100.00;100831.84;104036;1302;61863;-82
2022/10/31 20:06:35;;;;;;;74.20;34.80;;;;;;;14.00;100.00;100825.04;104287;1291;59226;-81
2022/10/31 20:09:06;;;;;;;71.80;35.10;;;;;;;13.96;100.00;100823.98;105075;1285;72758;-81
2022/10/31 20:11:35;;;;;;;70.30;33.60;;;;;;;13.93;100.00;100823.55;104444;1294;68733;-81
2022/10/31 20:14:02;;;;;;;71.30;34.60;;;;;;;13.89;100.00;100820.61;104134;1294;71266;-82
2022/10/31 20:16:29;;;;;;;67.70;33.70;;;;;;;13.86;100.00;100823.38;104377;1289;61751;-83
2022/10/31 20:18:58;;;;;;;73.20;34.60;;;;;;;13.85;100.00;100829.77;104156;1295;61393;-82
2022/10/31 20:21:29;;;;;;;71.00;35.00;;;;;;;13.84;100.00;100828.45;104155;1292;71907;-81
2022/10/31 20:23:59;;;;;;;79.60;36.60;;;;;;;13.83;100.00;100825.04;103649;1300;69937;-81
2022/10/31 20:26:27;;;;;;;72.50;36.10;;;;;;;13.81;100.00;100815.88;103670;1293;72844;-82
2022/10/31 20:28:55;;;;;;;76.10;37.20;;;;;;;13.79;100.00;100808.27;104073;1294;63252;-81
2022/10/31 20:31:24;;;;;;;75.80;36.70;;;;;;;13.77;100.00;100806.33;103665;1297;60579;-82
2022/10/31 20:33:52;;;;;;;83.30;38.50;;;;;;;13.76;100.00;100798.52;103919;1297;74190;-82
2022/10/31 20:36:22;;;;;;;75.60;37.90;;;;;;;13.77;100.00;100795.79;103574;1300;71731;-82
2022/10/31 20:38:51;;;;;;;81.10;39.10;;;;;;;13.78;100.00;100793.33;103814;1298;72444;-80
2022/10/31 20:41:17;;;;;;;78.70;38.80;;;;;;;13.79;100.00;100791.11;104104;1291;60656;-81
2022/10/31 20:43:44;;;;;;;81.90;39.40;;;;;;;13.81;100.00;100792.11;104224;1294;60894;-82
2022/10/31 20:46:20;;;;;;;87.60;39.80;;;;;;;13.81;100.00;100779.81;105710;1276;72833;-82
2022/10/31 20:48:47;;;;;;;76.70;37.50;;;;;;;13.85;100.00;100770.58;105225;1294;70413;-82
2022/10/31 20:51:22;;;;;;;81.50;38.60;;;;;;;13.88;100.00;100767.05;104542;1290;70421;-81
2022/10/31 20:53:50;;;;;;;77.90;37.80;;;;;;;13.91;100.00;100770.70;104679;1291;60527;-80
2022/10/31 20:56:19;;;;;;;74.00;36.70;;;;;;;13.95;100.00;100773.27;104180;1294;60388;-81
2022/10/31 20:58:46;;;;;;;70.40;37.10;;;;;;;13.98;100.00;100787.85;103805;1292;73829;-80
2022/10/31 21:01:21;;;;;;;79.30;38.40;;;;;;;13.99;100.00;100798.89;103890;1299;69976;-83
2022/10/31 21:03:49;;;;;;;67.60;34.20;;;;;;;14.02;100.00;100808.65;103769;1301;73644;-82
2022/10/31 21:06:17;;;;;;;60.20;32.70;;;;;;;14.02;100.00;100811.02;103843;1301;60919;-81
2022/10/31 21:08:44;;;;;;;63.30;33.90;;;;;;;14.00;100.00;100811.95;103837;1291;60387;-83
2022/10/31 21:11:14;;;;;;;66.90;34.80;;;;;;;14.01;100.00;100806.30;104230;1291;74670;-82
2022/10/31 21:13:43;;;;;;;60.20;33.20;;;;;;;14.01;100.00;100793.16;103947;1301;72331;-82
2022/10/31 21:16:20;;;;;;;60.90;33.30;;;;;;;14.00;100.00;100791.80;105504;1284;71088;-82
2022/10/31 21:18:48;;;;;;;64.70;34.90;;;;;;;13.99;100.00;100798.70;103992;1301;60586;-83
2022/10/31 21:21:20;;;;;;;59.90;32.00;;;;;;;14.00;100.00;100804.45;105674;1287;57827;-82
2022/10/31 21:23:51;;;;;;;57.30;32.20;;;;;;;14.02;100.00;100795.67;105777;1292;73431;-83
2022/10/31 21:26:21;;;;;;;60.20;32.60;;;;;;;14.02;100.00;100783.00;103805;1298;68983;-82
2022/10/31 21:28:50;;;;;;;59.10;33.10;;;;;;;14.01;100.00;100775.52;103785;1294;73256;-82
2022/10/31 21:31:17;;;;;;;52.00;30.20;;;;;;;13.99;100.00;100773.30;103745;1299;60578;-81
2022/10/31 21:33:44;;;;;;;57.10;31.60;;;;;;;13.97;100.00;100784.07;103870;1294;60362;-81
2022/10/31 21:36:12;;;;;;;59.30;33.30;;;;;;;13.96;100.00;100784.12;103837;1294;73874;-81
2022/10/31 21:38:40;;;;;;;56.60;31.60;;;;;;;13.95;100.00;100785.83;104031;1302;70500;-82
2022/10/31 21:41:10;;;;;;;53.70;30.90;;;;;;;13.94;100.00;100779.58;103972;1285;71175;-82
2022/10/31 21:43:38;;;;;;;54.50;31.60;;;;;;;13.94;100.00;100778.19;104026;1301;60989;-81
2022/10/31 21:46:11;;;;;;;49.30;29.20;;;;;;;13.93;100.00;100772.34;103951;1291;60594;-81
2022/10/31 21:48:40;;;;;;;53.50;30.20;;;;;;;13.90;100.00;100768.23;103994;1298;73568;-81
2022/10/31 21:51:10;;;;;;;54.10;30.30;;;;;;;13.87;100.00;100760.91;104087;1291;72185;-80
2022/10/31 21:56:23;;;;;;;50.40;30.50;;;;;;;13.79;100.00;100746.98;103716;1299;60682;-79
2022/10/31 21:58:51;;;;;;;46.00;28.50;;;;;;;13.78;100.00;100739.02;103843;1292;60541;-80
2022/10/31 22:01:18;;;;;;;49.90;29.80;;;;;;;13.70;100.00;100731.79;103639;1300;73688;-82
2022/10/31 22:03:46;;;;;;;54.00;29.30;;;;;;;13.63;100.00;100731.12;103642;1293;69868;-81
2022/10/31 22:06:13;;;;;;;51.30;30.40;;;;;;;13.54;100.00;100731.30;103511;1301;71937;-81
2022/10/31 22:08:40;;;;;;;49.30;28.80;;;;;;;13.48;100.00;100733.52;103569;1300;60896;-82
2022/10/31 22:11:12;;;;;;;53.90;30.30;;;;;;;13.39;100.00;100740.95;104243;1296;61720;-82
2022/10/31 22:13:40;;;;;;;50.90;29.20;;;;;;;13.35;100.00;100734.27;104193;1301;73911;-82
2022/10/31 22:16:16;;;;;;;54.40;30.90;;;;;;;13.30;100.00;100736.27;103509;1299;70976;-82
2022/10/31 22:18:44;;;;;;;49.80;29.80;;;;;;;13.26;100.00;100742.77;103714;1299;72656;-82
2022/10/31 22:21:16;;;;;;;51.30;30.10;;;;;;;13.21;100.00;100740.68;103629;1302;63298;-80
2022/10/31 22:23:44;;;;;;;55.60;30.70;;;;;;;13.16;100.00;100733.33;104015;1297;60350;-82
2022/10/31 22:26:13;;;;;;;54.20;31.30;;;;;;;13.13;100.00;100725.06;103612;1298;75724;-81
2022/10/31 22:28:46;;;;;;;56.20;31.10;;;;;;;13.09;100.00;100725.07;103891;1294;71440;-82
2022/10/31 22:31:16;;;;;;;53.90;31.00;;;;;;;13.04;100.00;100729.48;103519;1298;71572;-83
2022/10/31 22:33:44;;;;;;;58.90;30.50;;;;;;;12.98;100.00;100726.31;103904;1294;60515;-82
2022/10/31 22:36:17;;;;;;;55.50;30.40;;;;;;;12.93;100.00;100723.56;105502;1292;58763;-81
2022/10/31 22:38:46;;;;;;;59.70;31.50;;;;;;;12.89;100.00;100720.77;104841;1295;73603;-82
2022/10/31 22:41:15;;;;;;;59.50;32.30;;;;;;;12.87;100.00;100722.58;104097;1300;71366;-82
2022/10/31 22:43:43;;;;;;;55.90;30.70;;;;;;;12.85;100.00;100712.79;105149;1290;72299;-80
2022/10/31 22:46:18;;;;;;;57.50;32.00;;;;;;;12.85;100.00;100710.04;104763;1300;61980;-80
2022/10/31 22:48:51;;;;;;;56.80;30.90;;;;;;;12.85;100.00;100709.71;104555;1299;59606;-82
2022/10/31 22:51:19;;;;;;;54.50;31.50;;;;;;;12.83;100.00;100705.29;104476;1300;73180;-84
2022/10/31 22:53:50;;;;;;;57.10;31.20;;;;;;;12.82;100.00;100705.80;103561;1294;69663;-80
2022/10/31 22:56:19;;;;;;;55.50;30.10;;;;;;;12.79;100.00;100700.37;103982;1289;72779;-80
2022/10/31 22:58:46;;;;;;;57.60;30.60;;;;;;;12.74;100.00;100696.46;103862;1298;61703;-81
2022/10/31 23:01:16;;;;;;;55.00;30.50;;;;;;;12.70;100.00;100691.38;104273;1294;60719;-81
2022/10/31 23:03:44;;;;;;;55.10;30.90;;;;;;;12.64;100.00;100694.19;103690;1294;72451;-82
2022/10/31 23:06:13;;;;;;;59.40;31.90;;;;;;;12.58;100.00;100699.16;103881;1298;68525;-80
2022/10/31 23:08:40;;;;;;;62.60;32.30;;;;;;;12.55;100.00;100695.48;103794;1294;73339;-81
2022/10/31 23:11:20;;;;;;;60.80;31.40;;;;;;;12.52;100.00;100697.54;104165;1294;63467;-79
2022/10/31 23:14:08;;;;;;;63.70;32.20;;;;;;;12.51;100.00;100701.98;105410;1281;60435;-81
2022/10/31 23:16:43;;;;;;;60.00;31.90;;;;;;;12.49;100.00;100704.88;104070;1301;74150;-81
2022/10/31 23:19:17;;;;;;;68.90;33.70;;;;;;;12.48;100.00;100699.46;104099;1294;70548;-80
2022/10/31 23:21:58;;;;;;;67.40;32.80;;;;;;;12.47;100.00;100699.77;104678;1292;73104;-81
2022/10/31 23:24:38;;;;;;;70.40;34.30;;;;;;;12.48;100.00;100703.60;105702;1284;61641;-81
2022/10/31 23:27:16;;;;;;;65.10;33.30;;;;;;;12.48;100.00;100709.23;104105;1302;59591;-81
2022/10/31 23:29:51;;;;;;;73.50;35.00;;;;;;;12.50;100.00;100702.64;104023;1295;72435;-80
2022/10/31 23:32:34;;;;;;;69.70;34.70;;;;;;;12.52;100.00;100697.58;104226;1294;69524;-80
2022/10/31 23:35:05;;;;;;;67.60;32.30;;;;;;;12.55;100.00;100690.52;104315;1301;71252;-80
2022/10/31 23:37:35;;;;;;;63.70;32.10;;;;;;;12.55;100.00;100688.73;103892;1301;60960;-80
2022/10/31 23:40:03;;;;;;;66.00;34.40;;;;;;;12.53;100.00;100683.42;103754;1299;60840;-80
2022/10/31 23:42:30;;;;;;;65.30;33.10;;;;;;;12.52;100.00;100687.95;103768;1298;73373;-81
2022/10/31 23:44:57;;;;;;;61.20;32.80;;;;;;;12.51;100.00;100679.98;104294;1297;70665;-81
2022/10/31 23:47:23;;;;;;;60.80;32.40;;;;;;;12.49;100.00;100672.41;104518;1297;71788;-80
2022/10/31 23:49:50;;;;;;;63.20;33.00;;;;;;;12.46;100.00;100666.90;103840;1301;60729;-81
2022/10/31 23:52:17;;;;;;;62.30;32.20;;;;;;;12.42;100.00;100667.91;103923;1295;60518;-81
2022/10/31 23:54:44;;;;;;;61.10;32.70;;;;;;;12.38;100.00;100664.70;103840;1300;72899;-82
2022/10/31 23:57:13;;;;;;;63.20;32.30;;;;;;;12.36;100.00;100664.27;103902;1299;72135;-81
2022/10/31 23:59:40;;;;;;;66.60;32.80;;;;;;;12.33;100.00;100662.86;104076;1300;71669;-81
